地図

経路データ

SID SEASON NUMBER BASIN SUBBASIN NAME ISO_TIME NATURE LAT LON WMO_WIND WMO_PRES WMO_AGENCY TRACK_TYPE DIST2LAND LANDFALL IFLAG USA_AGENCY USA_ATCF_ID USA_LAT USA_LON USA_RECORD USA_STATUS USA_WIND USA_PRES USA_SSHS USA_R34_NE USA_R34_SE USA_R34_SW USA_R34_NW USA_R50_NE USA_R50_SE USA_R50_SW USA_R50_NW USA_R64_NE USA_R64_SE USA_R64_SW USA_R64_NW USA_POCI USA_ROCI USA_RMW USA_EYE TOKYO_LAT TOKYO_LON TOKYO_GRADE TOKYO_WIND TOKYO_PRES TOKYO_R50_DIR TOKYO_R50_LONG TOKYO_R50_SHORT TOKYO_R30_DIR TOKYO_R30_LONG TOKYO_R30_SHORT TOKYO_LAND CMA_LAT CMA_LON CMA_CAT CMA_WIND CMA_PRES HKO_LAT HKO_LON HKO_CAT HKO_WIND HKO_PRES NEWDELHI_LAT NEWDELHI_LON NEWDELHI_GRADE NEWDELHI_WIND NEWDELHI_PRES NEWDELHI_CI NEWDELHI_DP NEWDELHI_POCI REUNION_LAT REUNION_LON REUNION_TYPE REUNION_WIND REUNION_PRES REUNION_TNUM REUNION_CI REUNION_RMW REUNION_R34_NE REUNION_R34_SE REUNION_R34_SW REUNION_R34_NW REUNION_R50_NE REUNION_R50_SE REUNION_R50_SW REUNION_R50_NW REUNION_R64_NE REUNION_R64_SE REUNION_R64_SW REUNION_R64_NW BOM_LAT BOM_LON BOM_TYPE BOM_WIND BOM_PRES BOM_TNUM BOM_CI BOM_RMW BOM_R34_NE BOM_R34_SE BOM_R34_SW BOM_R34_NW BOM_R50_NE BOM_R50_SE BOM_R50_SW BOM_R50_NW BOM_R64_NE BOM_R64_SE BOM_R64_SW BOM_R64_NW BOM_ROCI BOM_POCI BOM_EYE BOM_POS_METHOD BOM_PRES_METHOD NADI_LAT NADI_LON NADI_CAT NADI_WIND NADI_PRES WELLINGTON_LAT WELLINGTON_LON WELLINGTON_WIND WELLINGTON_PRES DS824_LAT DS824_LON DS824_STAGE DS824_WIND DS824_PRES TD9636_LAT TD9636_LON TD9636_STAGE TD9636_WIND TD9636_PRES TD9635_LAT TD9635_LON TD9635_WIND TD9635_PRES TD9635_ROCI NEUMANN_LAT NEUMANN_LON NEUMANN_CLASS NEUMANN_WIND NEUMANN_PRES MLC_LAT MLC_LON MLC_CLASS MLC_WIND MLC_PRES USA_GUST BOM_GUST BOM_GUST_PER REUNION_GUST REUNION_GUST_PER USA_SEAHGT USA_SEARAD_NE USA_SEARAD_SE USA_SEARAD_SW USA_SEARAD_NW STORM_SPEED STORM_DIR
1859289N25285 1859 25 NA NA NOT_NAMED 1859-10-16 00:00:00 TS 25.1000 -75.1000 60 hurdat_atl main 270 254 O_____________ hurdat_atl AL071859 25.1000 -75.1000 TS 60 0 4 291
1859289N25285 1859 25 NA NA NOT_NAMED 1859-10-16 03:00:00 TS 25.1675 -75.2924 main 254 235 P_____________ AL071859 25.1675 -75.2924 TS 60 0 4 285
1859289N25285 1859 25 NA NA NOT_NAMED 1859-10-16 06:00:00 TS 25.2000 -75.5000 60 hurdat_atl main 235 216 O_____________ hurdat_atl AL071859 25.2000 -75.5000 TS 60 0 4 272
1859289N25285 1859 25 NA NA NOT_NAMED 1859-10-16 09:00:00 TS 25.1850 -75.7352 main 216 188 P_____________ AL071859 25.1850 -75.7352 TS 60 0 5 270
1859289N25285 1859 25 NA NA NOT_NAMED 1859-10-16 12:00:00 TS 25.2000 -76.0000 60 hurdat_atl main 188 174 O_____________ hurdat_atl AL071859 25.2000 -76.0000 TS 60 0 5 287
1859289N25285 1859 25 NA NA NOT_NAMED 1859-10-16 15:00:00 TS 25.3273 -76.2625 main 165 146 P_____________ AL071859 25.3273 -76.2625 TS 60 0 6 299
1859289N25285 1859 25 NA NA NOT_NAMED 1859-10-16 18:00:00 TS 25.5000 -76.6000 60 hurdat_atl main 146 114 O_____________ hurdat_atl AL071859 25.5000 -76.6000 TS 60 0 8 294
1859289N25285 1859 25 NA NA NOT_NAMED 1859-10-16 21:00:00 TS 25.6577 -77.0774 main 112 87 P_____________ AL071859 25.6577 -77.0774 TS 60 0 10 288
1859289N25285 1859 25 NA NA NOT_NAMED 1859-10-17 00:00:00 TS 25.8000 -77.6000 60 hurdat_atl main 87 80 O_____________ hurdat_atl AL071859 25.8000 -77.6000 TS 60 0 9 286
1859289N25285 1859 25 NA NA NOT_NAMED 1859-10-17 03:00:00 TS 25.9072 -78.0502 main 89 89 P_____________ AL071859 25.9072 -78.0502 TS 60 0 8 284
1859289N25285 1859 25 NA NA NOT_NAMED 1859-10-17 06:00:00 TS 26.0000 -78.5000 60 hurdat_atl main 108 108 O_____________ hurdat_atl AL071859 26.0000 -78.5000 TS 60 0 9 282
1859289N25285 1859 25 NA NA NOT_NAMED 1859-10-17 09:00:00 TS 26.0909 -79.0022 main 109 59 P_____________ AL071859 26.0909 -79.0022 TS 60 0 9 283
1859289N25285 1859 25 NA NA NOT_NAMED 1859-10-17 12:00:00 TS 26.2000 -79.5000 60 hurdat_atl main 59 19 O_____________ hurdat_atl AL071859 26.2000 -79.5000 TS 60 0 9 287
1859289N25285 1859 25 NA NA NOT_NAMED 1859-10-17 15:00:00 TS 26.3481 -79.9317 main 19 0 P_____________ AL071859 26.3481 -79.9317 TS 60 0 9 290
1859289N25285 1859 25 NA NA NOT_NAMED 1859-10-17 16:00:00 TS 26.4000 -80.1000 60 hurdat_atl main 0 0 O_____________ hurdat_atl AL071859 26.4000 -80.1000 L TS 60 0 11 287
1859289N25285 1859 25 NA NA NOT_NAMED 1859-10-17 18:00:00 TS 26.5000 -80.5000 50 hurdat_atl main 0 0 O_____________ hurdat_atl AL071859 26.5000 -80.5000 TS 50 0 10 287
1859289N25285 1859 25 NA NA NOT_NAMED 1859-10-17 21:00:00 TS 26.6433 -80.9661 main 0 0 P_____________ AL071859 26.6433 -80.9661 TS 45 0 8 293
1859289N25285 1859 25 NA NA NOT_NAMED 1859-10-18 00:00:00 TS 26.8000 -81.3000 40 hurdat_atl main 0 0 O_____________ hurdat_atl AL071859 26.8000 -81.3000 TS 40 0 6 303
1859289N25285 1859 25 NA NA NOT_NAMED 1859-10-18 03:00:00 TS 26.9898 -81.5653 main 0 0 P_____________ AL071859 26.9898 -81.5653 TS 40 0 6 312
1859289N25285 1859 25 NA NA NOT_NAMED 1859-10-18 06:00:00 TS 27.2000 -81.8000 40 hurdat_atl main 0 O_____________ hurdat_atl AL071859 27.2000 -81.8000 TS 40 0 6 315

IBTrACS Databaseについて

本データベースは、米国NOAAが公開する1842年以降の世界の熱帯低気圧のベストトラックデータアーカイブInternational Best Track Archive for Climate Stewardship (IBTrACS)を、ウェブで閲覧しやすい形式に変換したものです。

最終更新日:2021-10-27